createdAt,value
2022-09-06T00:01:17.788Z,2.97
2022-09-06T00:03:46.452Z,3.20
2022-09-06T00:08:47.138Z,3.50
2022-09-06T00:11:16.346Z,3.40
2022-09-06T00:13:44.884Z,3.47
2022-09-06T00:16:16.729Z,3.30
2022-09-06T00:21:18.672Z,2.85
2022-09-06T00:23:46.632Z,3.17
2022-09-06T00:28:42.810Z,3.40
2022-09-06T00:33:42.038Z,3.08
2022-09-06T00:36:11.337Z,3.20
2022-09-06T00:38:39.963Z,3.15
2022-09-06T00:41:10.175Z,3.25
2022-09-06T00:43:38.549Z,3.25
2022-09-06T00:46:08.308Z,3.38
2022-09-06T00:51:12.247Z,3.50
2022-09-06T00:53:40.371Z,4.13
2022-09-06T00:56:08.767Z,4.65
2022-09-06T00:58:37.373Z,3.60
2022-09-06T01:01:06.783Z,3.67
2022-09-06T01:03:35.689Z,4.03
2022-09-06T01:09:00.264Z,3.80
2022-09-06T01:11:42.507Z,4.18
2022-09-06T01:14:26.947Z,4.20
2022-09-06T01:17:06.312Z,4.47
2022-09-06T01:20:09.582Z,3.63
2022-09-06T01:23:16.886Z,3.67
2022-09-06T01:26:00.948Z,3.40
2022-09-06T01:28:38.568Z,3.65
2022-09-06T01:31:19.385Z,4.00
2022-09-06T01:33:51.547Z,3.85
2022-09-06T01:36:23.479Z,3.42
2022-09-06T01:38:51.610Z,4.10
2022-09-06T01:41:19.469Z,3.67
2022-09-06T01:43:51.748Z,3.92
2022-09-06T01:46:30.019Z,3.15
2022-09-06T01:49:21.007Z,3.47
2022-09-06T01:54:46.276Z,3.40
2022-09-06T01:57:24.036Z,3.65
2022-09-06T02:00:06.154Z,3.70
2022-09-06T02:05:18.806Z,3.80
2022-09-06T02:10:22.504Z,3.55
2022-09-06T02:15:28.264Z,3.70
2022-09-06T02:18:01.572Z,3.60
2022-09-06T02:20:32.843Z,3.15
2022-09-06T02:23:05.731Z,3.58
2022-09-06T02:25:38.175Z,3.45
2022-09-06T02:28:07.369Z,3.55
2022-09-06T02:30:41.079Z,3.33
2022-09-06T02:33:14.985Z,3.65
2022-09-06T02:35:45.829Z,3.67
2022-09-06T02:40:43.093Z,4.10
2022-09-06T02:43:10.966Z,3.97
2022-09-06T02:45:40.516Z,3.30
2022-09-06T02:48:08.428Z,4.18
2022-09-06T02:50:37.127Z,3.42
2022-09-06T02:53:06.569Z,3.75
2022-09-06T02:55:34.720Z,4.22
2022-09-06T02:58:02.912Z,4.32
2022-09-06T03:00:31.045Z,3.70
2022-09-06T03:03:00.966Z,3.83
2022-09-06T03:05:29.382Z,3.75
2022-09-06T03:10:26.321Z,4.15
2022-09-06T03:12:54.486Z,3.67
2022-09-06T03:15:22.711Z,3.75
2022-09-06T03:20:20.130Z,3.85
2022-09-06T03:25:16.211Z,4.38
2022-09-06T03:37:40.837Z,3.30
2022-09-06T03:45:07.599Z,3.47
2022-09-06T03:47:35.417Z,3.88
2022-09-06T03:55:00.741Z,3.78
2022-09-06T03:57:28.583Z,3.53
2022-09-06T03:59:56.446Z,3.92
2022-09-06T04:04:55.470Z,3.60
2022-09-06T04:09:51.629Z,4.07
2022-09-06T04:17:16.740Z,3.50
2022-09-06T04:19:44.560Z,3.95
2022-09-06T04:24:40.364Z,3.95
2022-09-06T04:34:34.185Z,4.07
2022-09-06T04:37:02.072Z,3.60
2022-09-06T04:39:29.950Z,3.72
2022-09-06T04:41:57.799Z,3.60
2022-09-06T04:47:09.302Z,3.65
2022-09-06T04:49:37.502Z,3.55
2022-09-06T04:54:33.414Z,3.33
2022-09-06T04:57:01.313Z,3.60
2022-09-06T04:59:29.168Z,3.55
2022-09-06T05:01:58.512Z,3.80
2022-09-06T05:09:30.290Z,4.47
2022-09-06T05:11:58.177Z,4.28
2022-09-06T05:24:20.253Z,4.32
2022-09-06T05:26:48.112Z,3.88
2022-09-06T05:29:15.968Z,4.10
2022-09-06T05:31:43.918Z,4.60
2022-09-06T05:34:13.484Z,5.10
2022-09-06T05:39:10.785Z,4.35
2022-09-06T05:44:06.682Z,3.80
2022-09-06T05:46:34.539Z,4.13
2022-09-06T05:49:07.861Z,4.28
2022-09-06T05:54:05.378Z,4.13
2022-09-06T05:56:33.831Z,4.15
2022-09-06T06:01:31.567Z,3.53
2022-09-06T06:04:01.127Z,4.32
2022-09-06T06:06:30.284Z,4.00
2022-09-06T06:11:29.675Z,4.20
2022-09-06T06:21:24.561Z,4.40
2022-09-06T06:23:54.682Z,3.85
2022-09-06T06:26:23.268Z,4.47
2022-09-06T06:31:22.679Z,4.13
2022-09-06T06:33:51.560Z,4.28
2022-09-06T06:36:24.437Z,4.00
2022-09-06T06:38:54.840Z,4.20
2022-09-06T06:41:25.042Z,4.20
2022-09-06T06:43:55.300Z,5.03
2022-09-06T06:46:24.813Z,4.22
2022-09-06T06:48:55.220Z,4.00
2022-09-06T06:51:24.669Z,5.07
2022-09-06T06:53:52.759Z,4.13
2022-09-06T06:56:22.577Z,5.05
2022-09-06T06:58:53.351Z,4.07
2022-09-06T07:01:23.525Z,4.60
2022-09-06T07:06:21.175Z,4.65
2022-09-06T07:08:49.918Z,4.30
2022-09-06T07:11:21.607Z,3.97
2022-09-06T07:16:24.697Z,4.20
2022-09-06T07:18:53.151Z,4.47
2022-09-06T07:21:41.670Z,4.53
2022-09-06T07:24:10.236Z,4.25
2022-09-06T07:26:40.319Z,4.30
2022-09-06T07:29:09.279Z,5.15
2022-09-06T07:34:27.245Z,4.22
2022-09-06T07:36:55.388Z,4.07
2022-09-06T07:39:23.754Z,3.78
2022-09-06T07:46:50.067Z,4.13
2022-09-06T07:49:18.068Z,4.70
2022-09-06T07:51:45.981Z,4.70
2022-09-06T07:54:29.818Z,3.75
2022-09-06T07:56:58.139Z,4.05
2022-09-06T07:59:25.996Z,3.70
2022-09-06T08:01:55.306Z,3.50
2022-09-06T08:04:23.193Z,3.80
2022-09-06T08:09:40.042Z,3.83
2022-09-06T08:12:08.829Z,3.55
2022-09-06T08:14:37.226Z,3.72
2022-09-06T08:17:06.550Z,3.78
2022-09-06T08:19:34.642Z,3.75
2022-09-06T08:22:02.955Z,3.58
2022-09-06T08:26:59.164Z,3.13
2022-09-06T08:29:27.463Z,3.20
2022-09-06T08:31:55.398Z,3.67
2022-09-06T08:34:24.675Z,3.63
2022-09-06T08:36:52.552Z,3.88
2022-09-06T08:39:20.448Z,3.20
2022-09-06T08:41:53.317Z,3.00
2022-09-06T08:47:14.501Z,3.25
2022-09-06T08:49:46.266Z,3.40
2022-09-06T08:52:28.470Z,2.63
2022-09-06T08:55:06.455Z,3.28
2022-09-06T08:58:06.220Z,2.80
2022-09-06T09:00:36.181Z,3.53
2022-09-06T09:03:15.931Z,3.60
2022-09-06T09:05:50.555Z,2.78
2022-09-06T09:08:26.769Z,2.90
2022-09-06T09:11:00.024Z,3.03
2022-09-06T09:13:33.583Z,3.08
2022-09-06T09:16:01.655Z,3.38
2022-09-06T09:18:33.552Z,3.35
2022-09-06T09:21:02.824Z,2.80
2022-09-06T09:26:03.410Z,3.05
2022-09-06T09:28:31.258Z,3.05
2022-09-06T09:30:59.602Z,2.63
2022-09-06T09:33:30.512Z,2.97
2022-09-06T09:36:00.740Z,2.92
2022-09-06T09:38:32.759Z,2.90
2022-09-06T09:41:03.996Z,2.92
2022-09-06T09:43:34.201Z,3.10
2022-09-06T09:46:17.098Z,2.90
2022-09-06T09:49:01.014Z,2.90
2022-09-06T09:51:30.296Z,2.80
2022-09-06T09:54:00.863Z,3.15
2022-09-06T09:56:34.595Z,2.85
2022-09-06T09:59:03.716Z,3.03
2022-09-06T10:01:33.762Z,3.05
2022-09-06T10:07:08.153Z,2.83
2022-09-06T10:09:40.581Z,3.08
2022-09-06T10:12:08.623Z,3.10
2022-09-06T10:14:42.772Z,2.83
2022-09-06T10:17:20.068Z,2.42
2022-09-06T10:19:48.882Z,2.80
2022-09-06T10:22:27.897Z,2.90
2022-09-06T10:25:37.370Z,2.90
2022-09-06T10:28:28.708Z,3.20
2022-09-06T10:31:09.279Z,2.80
2022-09-06T10:33:46.632Z,2.83
2022-09-06T10:36:17.017Z,2.70
2022-09-06T10:38:53.708Z,2.92
2022-09-06T10:41:41.363Z,2.58
2022-09-06T10:44:24.167Z,2.55
2022-09-06T10:47:01.100Z,2.63
2022-09-06T10:49:29.501Z,2.47
2022-09-06T10:52:01.548Z,2.67
2022-09-06T10:54:33.547Z,2.75
2022-09-06T10:57:09.353Z,2.30
2022-09-06T11:00:03.901Z,2.47
2022-09-06T11:02:40.825Z,2.53
2022-09-06T11:10:55.623Z,2.63
2022-09-06T11:13:28.390Z,2.50
2022-09-06T11:16:02.898Z,2.53
2022-09-06T11:18:38.887Z,2.28
2022-09-06T11:24:06.953Z,2.22
2022-09-06T11:26:38.192Z,2.40
2022-09-06T11:29:10.057Z,2.35
2022-09-06T11:34:41.252Z,2.15
2022-09-06T11:37:24.328Z,2.47
2022-09-06T11:43:18.707Z,2.33
2022-09-06T11:49:01.646Z,2.60
2022-09-06T11:51:38.206Z,2.58
2022-09-06T11:54:24.490Z,2.42
2022-09-06T11:56:58.363Z,2.67
2022-09-06T12:02:09.033Z,2.53
2022-09-06T12:05:12.444Z,2.78
2022-09-06T12:10:51.090Z,2.40
2022-09-06T12:13:52.685Z,2.53
2022-09-06T12:16:20.871Z,2.28
2022-09-06T12:27:23.648Z,2.60
2022-09-06T12:29:56.240Z,2.65
2022-09-06T12:48:05.860Z,2.58
2022-09-06T12:50:35.427Z,2.33
2022-09-06T12:58:16.396Z,2.40
2022-09-06T13:00:48.920Z,2.30
2022-09-06T13:08:35.041Z,2.17
2022-09-06T13:11:04.856Z,1.88
2022-09-06T13:13:33.699Z,2.10
2022-09-06T13:16:02.125Z,2.10
2022-09-06T13:23:42.609Z,1.85
2022-09-06T13:26:10.802Z,2.00
2022-09-06T13:28:39.459Z,2.30
2022-09-06T13:33:39.544Z,1.92
2022-09-06T13:36:23.947Z,2.03
2022-09-06T13:41:56.485Z,1.90
2022-09-06T13:44:31.198Z,2.00
2022-09-06T13:46:59.120Z,2.00
2022-09-06T13:52:02.058Z,1.95
2022-09-06T13:54:30.622Z,1.75
2022-09-06T13:59:26.534Z,2.15
2022-09-06T14:04:28.970Z,1.95
2022-09-06T14:19:18.486Z,2.08
2022-09-06T14:21:46.403Z,1.90
2022-09-06T14:58:59.961Z,2.03
2022-09-06T15:04:04.579Z,1.92
2022-09-06T15:14:06.335Z,1.83
2022-09-06T15:16:35.063Z,2.00
2022-09-06T15:21:33.010Z,2.13
2022-09-06T15:38:54.303Z,2.10
2022-09-06T15:43:56.755Z,2.00
2022-09-06T15:49:12.910Z,2.00
2022-09-06T15:51:42.106Z,2.20
2022-09-06T15:56:38.052Z,2.20
2022-09-06T16:04:07.458Z,2.10
2022-09-06T16:11:36.951Z,1.70
2022-09-06T16:14:05.738Z,1.98
2022-09-06T16:16:35.302Z,2.10
2022-09-06T16:19:04.047Z,2.15
2022-09-06T16:24:03.783Z,2.58
2022-09-06T16:26:33.273Z,2.25
2022-09-06T16:29:03.683Z,2.30
2022-09-06T16:31:32.853Z,1.92
2022-09-06T16:34:04.718Z,2.10
2022-09-06T16:36:32.613Z,2.63
2022-09-06T16:39:00.450Z,2.47
2022-09-06T16:41:33.797Z,2.42
2022-09-06T16:46:29.724Z,2.75
2022-09-06T16:51:31.936Z,2.58
2022-09-06T16:54:01.276Z,2.55
2022-09-06T16:56:33.521Z,3.00
2022-09-06T16:59:03.194Z,3.30
2022-09-06T17:01:32.638Z,2.17
2022-09-06T17:04:02.250Z,2.55
2022-09-06T17:09:01.336Z,2.67
2022-09-06T17:13:58.819Z,2.80
2022-09-06T17:16:44.128Z,2.47
2022-09-06T17:19:13.589Z,2.70
2022-09-06T17:21:43.704Z,2.25
2022-09-06T17:24:11.699Z,2.35
2022-09-06T17:26:40.461Z,2.70
2022-09-06T17:29:09.075Z,2.65
2022-09-06T17:31:37.372Z,2.67
2022-09-06T17:34:06.281Z,3.35
2022-09-06T17:39:07.635Z,3.03
2022-09-06T17:41:38.915Z,2.60
2022-09-06T17:44:08.121Z,2.85
2022-09-06T17:46:36.307Z,2.65
2022-09-06T17:49:05.881Z,2.53
2022-09-06T17:51:34.626Z,2.60
2022-09-06T17:54:02.487Z,2.30
2022-09-06T17:56:31.700Z,2.50
2022-09-06T17:59:01.322Z,2.85
2022-09-06T18:04:00.652Z,2.53
2022-09-06T18:06:30.403Z,2.92
2022-09-06T18:09:03.024Z,2.80
2022-09-06T18:11:33.979Z,4.45
2022-09-06T18:14:03.649Z,5.13
2022-09-06T18:16:33.015Z,3.33
2022-09-06T18:19:04.571Z,3.53
2022-09-06T18:21:34.183Z,2.97
2022-09-06T18:24:02.146Z,2.83
2022-09-06T18:26:30.030Z,2.63
2022-09-06T18:28:59.292Z,3.15
2022-09-06T18:33:58.103Z,3.08
2022-09-06T18:36:31.348Z,2.88
2022-09-06T18:39:02.729Z,2.40
2022-09-06T18:41:48.484Z,2.60
2022-09-06T18:44:18.072Z,2.50
2022-09-06T18:49:15.054Z,2.75
2022-09-06T18:51:44.716Z,2.40
2022-09-06T18:54:12.609Z,3.08
2022-09-06T18:56:40.567Z,2.97
2022-09-06T18:59:08.669Z,3.30
2022-09-06T19:04:07.159Z,3.47
2022-09-06T19:06:37.571Z,4.15
2022-09-06T19:09:07.958Z,3.53
2022-09-06T19:11:36.392Z,3.92
2022-09-06T19:14:05.580Z,3.63
2022-09-06T19:16:33.726Z,3.80
2022-09-06T19:19:06.018Z,3.90
2022-09-06T19:21:39.160Z,3.20
2022-09-06T19:24:10.266Z,3.40
2022-09-06T19:26:39.761Z,3.10
2022-09-06T19:29:10.035Z,3.90
2022-09-06T19:31:38.919Z,4.97
2022-09-06T19:34:08.527Z,4.03
2022-09-06T19:36:37.025Z,4.97
2022-09-06T19:39:07.497Z,5.00
2022-09-06T19:41:38.531Z,3.22
2022-09-06T19:44:08.712Z,4.07
2022-09-06T19:49:08.214Z,3.65
2022-09-06T19:51:37.731Z,2.90
2022-09-06T19:54:06.441Z,2.90
2022-09-06T19:56:35.715Z,3.17
2022-09-06T19:59:05.637Z,3.25
2022-09-06T20:01:35.030Z,3.08
2022-09-06T20:04:05.280Z,3.33
2022-09-06T20:06:33.192Z,3.45
2022-09-06T20:09:03.536Z,3.65
2022-09-06T20:11:33.696Z,3.30
2022-09-06T20:16:30.484Z,3.60
2022-09-06T20:18:59.452Z,3.65
2022-09-06T20:21:27.556Z,3.70
2022-09-06T20:23:57.596Z,3.15
2022-09-06T20:26:28.431Z,3.60
2022-09-06T20:28:58.124Z,3.05
2022-09-06T20:31:27.960Z,3.30
2022-09-06T20:33:55.937Z,3.38
2022-09-06T20:36:23.810Z,3.38
2022-09-06T20:41:21.517Z,3.20
2022-09-06T20:43:53.634Z,3.10
2022-09-06T20:46:24.500Z,2.80
2022-09-06T20:48:52.857Z,3.95
2022-09-06T20:53:54.282Z,3.42
2022-09-06T20:56:23.692Z,3.38
2022-09-06T20:58:54.577Z,3.03
2022-09-06T21:01:25.275Z,3.13
2022-09-06T21:08:51.896Z,3.90
2022-09-06T21:11:20.605Z,2.97
2022-09-06T21:13:50.418Z,3.00
2022-09-06T21:16:24.328Z,3.15
2022-09-06T21:21:22.371Z,3.13
2022-09-06T21:23:50.549Z,3.00
2022-09-06T21:28:47.926Z,3.13
2022-09-06T21:31:17.509Z,3.42
2022-09-06T21:33:48.574Z,3.00
2022-09-06T21:36:18.998Z,3.13
2022-09-06T21:41:18.080Z,3.15
2022-09-06T21:43:46.560Z,2.78
2022-09-06T21:46:16.784Z,3.45
2022-09-06T21:48:47.732Z,3.00
2022-09-06T21:51:17.398Z,2.80
2022-09-06T21:53:47.972Z,3.00
2022-09-06T21:56:18.888Z,2.78
2022-09-06T21:58:47.171Z,2.65
2022-09-06T22:01:16.243Z,2.90
2022-09-06T22:03:44.643Z,3.30
2022-09-06T22:06:16.097Z,3.42
2022-09-06T22:08:44.524Z,3.00
2022-09-06T22:11:14.550Z,2.80
2022-09-06T22:13:43.583Z,2.80
2022-09-06T22:16:13.113Z,3.88
2022-09-06T22:18:41.366Z,3.00
2022-09-06T22:21:11.371Z,3.20
2022-09-06T22:26:11.623Z,3.08
2022-09-06T22:31:09.194Z,3.53
2022-09-06T22:38:36.087Z,3.10
2022-09-06T22:41:05.763Z,2.97
2022-09-06T22:43:33.924Z,3.20
2022-09-06T22:46:07.196Z,3.38
2022-09-06T22:48:35.858Z,2.85
2022-09-06T22:53:35.564Z,3.42
2022-09-06T22:56:05.502Z,3.78
2022-09-06T22:58:35.242Z,3.50
2022-09-06T23:01:12.576Z,2.80
2022-09-06T23:03:42.026Z,3.30
2022-09-06T23:06:10.966Z,2.88
2022-09-06T23:08:40.888Z,2.88
2022-09-06T23:11:12.959Z,3.05
2022-09-06T23:13:43.768Z,3.00
2022-09-06T23:16:14.190Z,3.55
2022-09-06T23:21:13.162Z,3.38
2022-09-06T23:23:41.935Z,3.17
2022-09-06T23:26:12.880Z,3.38
2022-09-06T23:31:12.073Z,3.05
2022-09-06T23:33:41.108Z,2.75
2022-09-06T23:36:11.300Z,3.33
2022-09-06T23:46:10.762Z,2.78
2022-09-06T23:48:39.049Z,3.30
2022-09-06T23:51:07.327Z,3.30
2022-09-06T23:56:04.582Z,3.28
2022-09-06T23:58:32.865Z,3.60
